Airfield :
LOGIN :

Register | Disclaimer

   EN    FR    IT 

 










Legend :    VFR   Marginal VFR   IFR   Intensive IFR   Very Intensive IFR
Visi :
Ceiling :
>= 8 km
>= 3000ft
5 to 8 km
1000 to 3000 ft
1500m to 5 km
500 to 1000 ft
800 to 1500m
200 to 500 ft
< 800m
< 200 ft
Symbols :   Thunderstorms  Fog  Heavy snow  Heavy precipitations  Wind > 20 kt
SIGMETs :     Misc.  Thunderstorms  Icing  Turbulence  Mountain Waves  Volcanic Ashes






- Airport Elevation : 158 ft
- IATA code : QAR


EHDL - Deelen Airbase

CURRENT METAR :
  • 031955Z AUTO 29006KT 260V020 9999 FEW015 OVC150 17/14 Q1001 BLU

EXPIRED METARs :
  • 031925Z AUTO 30008KT 250V010 9999 OVC130 18/14 Q1001 BLU
  • 031855Z AUTO 31008KT 260V020 9999 OVC130 18/13 Q1002 BLU
  • 031825Z AUTO 31010KT 240V360 9999 OVC130 20/13 Q1002 BLU
  • 031755Z AUTO 32009KT 240V360 9999 OVC140 20/12 Q1001 BLU
  • 031725Z AUTO 31009KT 240V020 9999 OVC150 21/10 Q1002 BLU

TAF TAF EHDL
Valid from the 03 at 09:00 until the 03 at 21:00 UTC


030814Z 0309/0321 25008KT CAVOK
TEMPO 0311/0316 29010G20KT



MET'MAP, your aeronautical weather chart ! - Copyright ORBIFLY December 2007 - Disclaimer

ORBIFLY MET'MAP TEAM :

Programming & Development : Alexandra Zaïnal
Concept & original design : Baudouin d'Aumeries
Assistance for programming : Marc-Olivier Méhu
Technical & hardware support : Manuel Goepfert

Contact : metmap@orbifly.com




SOURCES & CREDITS :

   NOAA